sensor_id;sensor_type;location;lat;lon;timestamp;temperature;humidity
78184;DHT22;67442;44.570;18.610;2023-05-16T00:02:14;23.70;71.20
78184;DHT22;67442;44.570;18.610;2023-05-16T00:04:41;23.70;71.10
78184;DHT22;67442;44.570;18.610;2023-05-16T00:07:09;23.80;71.30
78184;DHT22;67442;44.570;18.610;2023-05-16T00:09:36;23.70;71.30
78184;DHT22;67442;44.570;18.610;2023-05-16T00:12:04;23.70;71.20
78184;DHT22;67442;44.570;18.610;2023-05-16T00:14:33;23.70;71.30
78184;DHT22;67442;44.570;18.610;2023-05-16T00:17:04;23.70;71.10
78184;DHT22;67442;44.570;18.610;2023-05-16T00:19:37;23.80;71.10
78184;DHT22;67442;44.570;18.610;2023-05-16T00:22:07;23.70;71.00
78184;DHT22;67442;44.570;18.610;2023-05-16T00:24:35;23.70;70.90
78184;DHT22;67442;44.570;18.610;2023-05-16T00:27:02;23.70;70.90
78184;DHT22;67442;44.570;18.610;2023-05-16T00:29:34;23.70;70.90
78184;DHT22;67442;44.570;18.610;2023-05-16T00:32:01;23.70;71.00
78184;DHT22;67442;44.570;18.610;2023-05-16T00:34:32;23.70;71.00
78184;DHT22;67442;44.570;18.610;2023-05-16T00:37:01;23.70;71.00
78184;DHT22;67442;44.570;18.610;2023-05-16T00:39:28;23.70;70.90
78184;DHT22;67442;44.570;18.610;2023-05-16T00:41:56;23.70;70.90
78184;DHT22;67442;44.570;18.610;2023-05-16T00:44:27;23.70;70.90
78184;DHT22;67442;44.570;18.610;2023-05-16T00:46:58;23.70;70.90
78184;DHT22;67442;44.570;18.610;2023-05-16T00:49:26;23.70;71.70
78184;DHT22;67442;44.570;18.610;2023-05-16T00:51:57;23.70;71.00
78184;DHT22;67442;44.570;18.610;2023-05-16T00:54:29;23.80;71.00
78184;DHT22;67442;44.570;18.610;2023-05-16T00:56:57;23.70;70.90
78184;DHT22;67442;44.570;18.610;2023-05-16T00:59:25;23.80;70.90
78184;DHT22;67442;44.570;18.610;2023-05-16T01:01:52;23.80;70.90
78184;DHT22;67442;44.570;18.610;2023-05-16T01:04:18;23.70;70.90
78184;DHT22;67442;44.570;18.610;2023-05-16T01:06:46;23.70;70.90
78184;DHT22;67442;44.570;18.610;2023-05-16T01:09:13;23.80;70.90
78184;DHT22;67442;44.570;18.610;2023-05-16T01:25:26;23.80;71.10
78184;DHT22;67442;44.570;18.610;2023-05-16T01:27:57;23.80;71.10
78184;DHT22;67442;44.570;18.610;2023-05-16T01:30:25;23.80;71.10
78184;DHT22;67442;44.570;18.610;2023-05-16T01:32:53;23.80;71.10
78184;DHT22;67442;44.570;18.610;2023-05-16T01:35:20;23.80;71.20
78184;DHT22;67442;44.570;18.610;2023-05-16T01:38:07;23.80;71.20
78184;DHT22;67442;44.570;18.610;2023-05-16T01:41:14;23.80;71.10
78184;DHT22;67442;44.570;18.610;2023-05-16T01:43:50;23.80;71.20
78184;DHT22;67442;44.570;18.610;2023-05-16T01:46:42;23.80;71.10
78184;DHT22;67442;44.570;18.610;2023-05-16T01:49:49;23.80;71.20
78184;DHT22;67442;44.570;18.610;2023-05-16T01:52:15;23.80;71.20
78184;DHT22;67442;44.570;18.610;2023-05-16T01:54:44;23.80;71.30
78184;DHT22;67442;44.570;18.610;2023-05-16T01:57:18;23.70;71.10
78184;DHT22;67442;44.570;18.610;2023-05-16T01:59:47;23.80;71.30
78184;DHT22;67442;44.570;18.610;2023-05-16T02:02:18;23.80;71.30
78184;DHT22;67442;44.570;18.610;2023-05-16T02:04:45;23.80;71.30
78184;DHT22;67442;44.570;18.610;2023-05-16T02:07:12;23.80;71.40
78184;DHT22;67442;44.570;18.610;2023-05-16T02:09:42;23.80;71.40
78184;DHT22;67442;44.570;18.610;2023-05-16T02:12:09;23.80;71.40
78184;DHT22;67442;44.570;18.610;2023-05-16T02:14:36;23.80;71.40
78184;DHT22;67442;44.570;18.610;2023-05-16T02:17:07;23.70;71.40
78184;DHT22;67442;44.570;18.610;2023-05-16T02:19:34;23.80;71.40
78184;DHT22;67442;44.570;18.610;2023-05-16T02:22:02;23.80;71.40
78184;DHT22;67442;44.570;18.610;2023-05-16T02:24:29;23.80;71.40
78184;DHT22;67442;44.570;18.610;2023-05-16T02:27:00;23.80;71.40
78184;DHT22;67442;44.570;18.610;2023-05-16T02:29:27;23.80;71.40
78184;DHT22;67442;44.570;18.610;2023-05-16T02:31:54;23.80;71.50
78184;DHT22;67442;44.570;18.610;2023-05-16T02:34:21;23.80;71.60
78184;DHT22;67442;44.570;18.610;2023-05-16T02:36:49;23.70;71.50
78184;DHT22;67442;44.570;18.610;2023-05-16T02:39:16;23.80;71.70
78184;DHT22;67442;44.570;18.610;2023-05-16T02:41:44;23.70;71.60
78184;DHT22;67442;44.570;18.610;2023-05-16T02:44:11;23.80;71.60
78184;DHT22;67442;44.570;18.610;2023-05-16T02:46:38;23.70;71.60
78184;DHT22;67442;44.570;18.610;2023-05-16T02:49:05;23.80;71.60
78184;DHT22;67442;44.570;18.610;2023-05-16T02:51:36;23.70;71.60
78184;DHT22;67442;44.570;18.610;2023-05-16T02:54:04;23.80;71.60
78184;DHT22;67442;44.570;18.610;2023-05-16T02:56:34;23.70;71.60
78184;DHT22;67442;44.570;18.610;2023-05-16T02:59:01;23.80;71.70
78184;DHT22;67442;44.570;18.610;2023-05-16T03:01:29;23.80;71.70
78184;DHT22;67442;44.570;18.610;2023-05-16T03:03:56;23.70;71.60
78184;DHT22;67442;44.570;18.610;2023-05-16T03:06:27;23.70;71.60
78184;DHT22;67442;44.570;18.610;2023-05-16T03:08:58;23.70;71.60
78184;DHT22;67442;44.570;18.610;2023-05-16T03:11:25;23.70;71.70
78184;DHT22;67442;44.570;18.610;2023-05-16T03:13:54;23.70;71.60
78184;DHT22;67442;44.570;18.610;2023-05-16T03:16:21;23.70;71.60
78184;DHT22;67442;44.570;18.610;2023-05-16T03:18:49;23.70;71.60
78184;DHT22;67442;44.570;18.610;2023-05-16T03:21:16;23.70;71.60
78184;DHT22;67442;44.570;18.610;2023-05-16T03:23:43;23.70;71.90
78184;DHT22;67442;44.570;18.610;2023-05-16T03:26:11;23.70;71.70
78184;DHT22;67442;44.570;18.610;2023-05-16T03:28:38;23.70;71.70
78184;DHT22;67442;44.570;18.610;2023-05-16T03:31:06;23.70;71.40
78184;DHT22;67442;44.570;18.610;2023-05-16T03:33:33;23.70;71.20
78184;DHT22;67442;44.570;18.610;2023-05-16T03:36:00;23.70;71.10
78184;DHT22;67442;44.570;18.610;2023-05-16T03:38:31;23.70;71.10
78184;DHT22;67442;44.570;18.610;2023-05-16T03:40:58;23.70;71.00
78184;DHT22;67442;44.570;18.610;2023-05-16T03:43:26;23.70;71.00
78184;DHT22;67442;44.570;18.610;2023-05-16T03:45:53;23.70;71.00
78184;DHT22;67442;44.570;18.610;2023-05-16T03:48:21;23.70;71.00
78184;DHT22;67442;44.570;18.610;2023-05-16T03:50:48;23.70;71.00
78184;DHT22;67442;44.570;18.610;2023-05-16T03:53:16;23.70;70.90
78184;DHT22;67442;44.570;18.610;2023-05-16T03:55:44;23.70;70.90
78184;DHT22;67442;44.570;18.610;2023-05-16T03:58:15;23.70;71.00
78184;DHT22;67442;44.570;18.610;2023-05-16T04:00:42;23.70;70.90
78184;DHT22;67442;44.570;18.610;2023-05-16T04:03:11;23.70;71.00
78184;DHT22;67442;44.570;18.610;2023-05-16T04:05:38;23.70;70.90
78184;DHT22;67442;44.570;18.610;2023-05-16T04:08:05;23.70;70.90
78184;DHT22;67442;44.570;18.610;2023-05-16T04:10:33;23.70;70.90
78184;DHT22;67442;44.570;18.610;2023-05-16T04:13:01;23.80;71.00
78184;DHT22;67442;44.570;18.610;2023-05-16T04:15:28;23.80;70.90
78184;DHT22;67442;44.570;18.610;2023-05-16T04:17:55;23.80;71.00
78184;DHT22;67442;44.570;18.610;2023-05-16T04:20:22;23.80;71.00
78184;DHT22;67442;44.570;18.610;2023-05-16T04:22:49;23.80;71.10
78184;DHT22;67442;44.570;18.610;2023-05-16T04:25:17;23.80;71.10
78184;DHT22;67442;44.570;18.610;2023-05-16T04:27:44;23.80;71.10
78184;DHT22;67442;44.570;18.610;2023-05-16T04:30:16;23.80;71.10
78184;DHT22;67442;44.570;18.610;2023-05-16T04:32:47;23.70;71.10
78184;DHT22;67442;44.570;18.610;2023-05-16T04:35:14;23.80;71.10
78184;DHT22;67442;44.570;18.610;2023-05-16T04:37:42;23.70;71.00
78184;DHT22;67442;44.570;18.610;2023-05-16T04:40:10;23.80;71.20
78184;DHT22;67442;44.570;18.610;2023-05-16T04:42:38;23.70;71.10
78184;DHT22;67442;44.570;18.610;2023-05-16T04:45:10;23.70;71.20
78184;DHT22;67442;44.570;18.610;2023-05-16T04:47:40;23.70;71.20
78184;DHT22;67442;44.570;18.610;2023-05-16T04:50:11;23.80;71.30
78184;DHT22;67442;44.570;18.610;2023-05-16T04:52:39;23.70;71.30
78184;DHT22;67442;44.570;18.610;2023-05-16T04:55:07;23.80;71.40
78184;DHT22;67442;44.570;18.610;2023-05-16T04:57:36;23.80;71.30
78184;DHT22;67442;44.570;18.610;2023-05-16T05:00:05;23.80;71.30
78184;DHT22;67442;44.570;18.610;2023-05-16T05:02:37;23.80;71.20
78184;DHT22;67442;44.570;18.610;2023-05-16T05:05:05;23.70;71.30
78184;DHT22;67442;44.570;18.610;2023-05-16T05:07:34;23.70;71.40
78184;DHT22;67442;44.570;18.610;2023-05-16T05:10:01;23.80;71.60
78184;DHT22;67442;44.570;18.610;2023-05-16T05:12:29;23.70;71.50
78184;DHT22;67442;44.570;18.610;2023-05-16T05:14:56;23.80;71.50
78184;DHT22;67442;44.570;18.610;2023-05-16T05:17:23;23.80;71.60
78184;DHT22;67442;44.570;18.610;2023-05-16T05:19:50;23.80;71.60
78184;DHT22;67442;44.570;18.610;2023-05-16T05:22:18;23.80;71.60
78184;DHT22;67442;44.570;18.610;2023-05-16T05:24:45;23.80;71.60
78184;DHT22;67442;44.570;18.610;2023-05-16T05:27:12;23.70;72.40
78184;DHT22;67442;44.570;18.610;2023-05-16T05:29:39;23.80;72.60
78184;DHT22;67442;44.570;18.610;2023-05-16T05:32:11;23.80;72.60
78184;DHT22;67442;44.570;18.610;2023-05-16T05:34:38;23.70;71.70
78184;DHT22;67442;44.570;18.610;2023-05-16T05:37:05;23.80;71.80
78184;DHT22;67442;44.570;18.610;2023-05-16T05:39:33;23.70;71.80
78184;DHT22;67442;44.570;18.610;2023-05-16T05:42:00;23.70;71.70
78184;DHT22;67442;44.570;18.610;2023-05-16T05:44:29;23.70;71.70
78184;DHT22;67442;44.570;18.610;2023-05-16T05:46:57;23.70;71.70
78184;DHT22;67442;44.570;18.610;2023-05-16T05:49:25;23.80;71.80
78184;DHT22;67442;44.570;18.610;2023-05-16T05:51:52;23.70;71.70
78184;DHT22;67442;44.570;18.610;2023-05-16T05:54:23;23.70;71.60
78184;DHT22;67442;44.570;18.610;2023-05-16T05:56:53;23.70;71.60
78184;DHT22;67442;44.570;18.610;2023-05-16T05:59:21;23.70;71.60
78184;DHT22;67442;44.570;18.610;2023-05-16T06:01:48;23.80;71.70
78184;DHT22;67442;44.570;18.610;2023-05-16T06:04:20;23.70;71.60
78184;DHT22;67442;44.570;18.610;2023-05-16T06:06:47;23.80;71.60
78184;DHT22;67442;44.570;18.610;2023-05-16T06:09:19;23.70;71.50
78184;DHT22;67442;44.570;18.610;2023-05-16T06:11:46;23.70;71.40
78184;DHT22;67442;44.570;18.610;2023-05-16T06:14:14;23.70;71.40
78184;DHT22;67442;44.570;18.610;2023-05-16T06:16:41;23.70;71.40
78184;DHT22;67442;44.570;18.610;2023-05-16T06:19:09;23.70;71.40
78184;DHT22;67442;44.570;18.610;2023-05-16T06:21:37;23.70;71.40
78184;DHT22;67442;44.570;18.610;2023-05-16T06:24:09;23.70;71.30
78184;DHT22;67442;44.570;18.610;2023-05-16T06:26:36;23.70;71.30
78184;DHT22;67442;44.570;18.610;2023-05-16T06:29:07;23.70;71.20
78184;DHT22;67442;44.570;18.610;2023-05-16T06:31:34;23.70;71.10
78184;DHT22;67442;44.570;18.610;2023-05-16T06:34:02;23.70;71.10
78184;DHT22;67442;44.570;18.610;2023-05-16T06:36:28;23.70;71.00
78184;DHT22;67442;44.570;18.610;2023-05-16T06:38:59;23.70;71.00
78184;DHT22;67442;44.570;18.610;2023-05-16T06:41:27;23.70;71.00
78184;DHT22;67442;44.570;18.610;2023-05-16T06:43:54;23.70;71.00
78184;DHT22;67442;44.570;18.610;2023-05-16T06:46:21;23.70;71.00
78184;DHT22;67442;44.570;18.610;2023-05-16T06:48:47;23.70;71.00
78184;DHT22;67442;44.570;18.610;2023-05-16T06:51:14;23.70;71.00
78184;DHT22;67442;44.570;18.610;2023-05-16T06:53:41;23.70;71.00
78184;DHT22;67442;44.570;18.610;2023-05-16T06:56:09;23.70;70.60
78184;DHT22;67442;44.570;18.610;2023-05-16T06:58:36;23.70;69.70
78184;DHT22;67442;44.570;18.610;2023-05-16T07:01:03;23.70;69.20
78184;DHT22;67442;44.570;18.610;2023-05-16T07:03:31;23.60;68.70
78184;DHT22;67442;44.570;18.610;2023-05-16T07:06:01;23.60;68.90
78184;DHT22;67442;44.570;18.610;2023-05-16T07:08:29;23.50;69.10
78184;DHT22;67442;44.570;18.610;2023-05-16T07:11:00;23.50;69.40
78184;DHT22;67442;44.570;18.610;2023-05-16T07:13:26;23.40;69.50
78184;DHT22;67442;44.570;18.610;2023-05-16T07:15:53;23.40;69.30
78184;DHT22;67442;44.570;18.610;2023-05-16T07:18:20;23.40;69.30
78184;DHT22;67442;44.570;18.610;2023-05-16T07:20:48;23.40;69.40
78184;DHT22;67442;44.570;18.610;2023-05-16T07:23:15;23.30;69.40
78184;DHT22;67442;44.570;18.610;2023-05-16T07:25:43;23.30;69.60
78184;DHT22;67442;44.570;18.610;2023-05-16T07:28:10;23.30;69.60
78184;DHT22;67442;44.570;18.610;2023-05-16T07:30:37;23.30;69.70
78184;DHT22;67442;44.570;18.610;2023-05-16T07:33:08;23.30;69.70
78184;DHT22;67442;44.570;18.610;2023-05-16T07:35:36;23.30;69.70
78184;DHT22;67442;44.570;18.610;2023-05-16T07:38:07;23.30;69.70
78184;DHT22;67442;44.570;18.610;2023-05-16T07:40:37;23.30;69.70
78184;DHT22;67442;44.570;18.610;2023-05-16T07:43:08;23.30;69.70
78184;DHT22;67442;44.570;18.610;2023-05-16T07:45:36;23.30;69.70
78184;DHT22;67442;44.570;18.610;2023-05-16T07:48:03;23.40;69.80
78184;DHT22;67442;44.570;18.610;2023-05-16T07:50:30;23.40;69.90
78184;DHT22;67442;44.570;18.610;2023-05-16T07:52:57;23.40;69.90
78184;DHT22;67442;44.570;18.610;2023-05-16T07:55:29;23.40;69.90
78184;DHT22;67442;44.570;18.610;2023-05-16T07:57:56;23.40;69.90
78184;DHT22;67442;44.570;18.610;2023-05-16T08:00:23;23.40;70.00
78184;DHT22;67442;44.570;18.610;2023-05-16T08:02:51;23.40;69.90
78184;DHT22;67442;44.570;18.610;2023-05-16T08:05:22;23.40;70.00
78184;DHT22;67442;44.570;18.610;2023-05-16T08:07:52;23.40;69.90
78184;DHT22;67442;44.570;18.610;2023-05-16T08:10:20;23.40;70.00
78184;DHT22;67442;44.570;18.610;2023-05-16T08:12:48;23.40;69.90
78184;DHT22;67442;44.570;18.610;2023-05-16T08:15:16;23.40;69.90
78184;DHT22;67442;44.570;18.610;2023-05-16T08:17:43;23.50;69.90
78184;DHT22;67442;44.570;18.610;2023-05-16T08:20:12;23.50;70.00
78184;DHT22;67442;44.570;18.610;2023-05-16T08:22:40;23.50;70.00
78184;DHT22;67442;44.570;18.610;2023-05-16T08:25:08;23.50;70.00
78184;DHT22;67442;44.570;18.610;2023-05-16T08:27:36;23.50;70.10
78184;DHT22;67442;44.570;18.610;2023-05-16T08:30:09;23.50;70.20
78184;DHT22;67442;44.570;18.610;2023-05-16T08:32:37;23.50;70.10
78184;DHT22;67442;44.570;18.610;2023-05-16T08:35:03;23.50;70.10
78184;DHT22;67442;44.570;18.610;2023-05-16T08:37:32;23.50;70.20
78184;DHT22;67442;44.570;18.610;2023-05-16T08:40:08;23.50;70.20
78184;DHT22;67442;44.570;18.610;2023-05-16T08:42:37;23.60;70.30
78184;DHT22;67442;44.570;18.610;2023-05-16T08:45:08;23.60;70.40
78184;DHT22;67442;44.570;18.610;2023-05-16T08:47:39;23.60;70.30
78184;DHT22;67442;44.570;18.610;2023-05-16T08:50:10;23.60;70.30
78184;DHT22;67442;44.570;18.610;2023-05-16T08:52:38;23.60;70.30
78184;DHT22;67442;44.570;18.610;2023-05-16T08:55:08;23.60;70.30
78184;DHT22;67442;44.570;18.610;2023-05-16T08:57:40;23.60;70.40
78184;DHT22;67442;44.570;18.610;2023-05-16T09:00:07;23.70;70.40
78184;DHT22;67442;44.570;18.610;2023-05-16T09:02:41;23.60;70.40
78184;DHT22;67442;44.570;18.610;2023-05-16T09:05:15;23.70;70.40
78184;DHT22;67442;44.570;18.610;2023-05-16T09:07:44;23.70;70.40
78184;DHT22;67442;44.570;18.610;2023-05-16T09:10:11;23.70;70.40
78184;DHT22;67442;44.570;18.610;2023-05-16T09:12:39;23.70;70.40
78184;DHT22;67442;44.570;18.610;2023-05-16T09:15:08;23.70;70.40
78184;DHT22;67442;44.570;18.610;2023-05-16T09:17:42;23.70;70.40
78184;DHT22;67442;44.570;18.610;2023-05-16T09:20:13;23.70;70.50
78184;DHT22;67442;44.570;18.610;2023-05-16T09:22:59;23.70;70.70
78184;DHT22;67442;44.570;18.610;2023-05-16T09:25:27;23.70;70.60
78184;DHT22;67442;44.570;18.610;2023-05-16T09:27:55;23.70;70.30
78184;DHT22;67442;44.570;18.610;2023-05-16T09:30:26;23.70;70.40
78184;DHT22;67442;44.570;18.610;2023-05-16T09:32:54;23.70;70.40
78184;DHT22;67442;44.570;18.610;2023-05-16T09:35:22;23.70;70.30
78184;DHT22;67442;44.570;18.610;2023-05-16T09:37:49;23.70;70.30
78184;DHT22;67442;44.570;18.610;2023-05-16T09:40:23;23.70;70.20
78184;DHT22;67442;44.570;18.610;2023-05-16T09:43:14;23.70;70.10
78184;DHT22;67442;44.570;18.610;2023-05-16T09:45:46;23.70;70.00
78184;DHT22;67442;44.570;18.610;2023-05-16T09:48:17;23.70;69.90
78184;DHT22;67442;44.570;18.610;2023-05-16T09:50:52;23.80;70.00
78184;DHT22;67442;44.570;18.610;2023-05-16T09:53:26;23.70;69.90
78184;DHT22;67442;44.570;18.610;2023-05-16T09:56:10;23.80;69.90
78184;DHT22;67442;44.570;18.610;2023-05-16T09:58:39;23.70;69.90
78184;DHT22;67442;44.570;18.610;2023-05-16T10:01:06;23.70;69.90
78184;DHT22;67442;44.570;18.610;2023-05-16T10:03:34;23.70;69.90
78184;DHT22;67442;44.570;18.610;2023-05-16T10:06:07;23.80;69.90
78184;DHT22;67442;44.570;18.610;2023-05-16T10:08:34;23.70;69.70
78184;DHT22;67442;44.570;18.610;2023-05-16T10:11:05;23.80;69.70
78184;DHT22;67442;44.570;18.610;2023-05-16T10:13:34;23.80;69.70
78184;DHT22;67442;44.570;18.610;2023-05-16T10:16:06;23.80;69.70
78184;DHT22;67442;44.570;18.610;2023-05-16T10:18:35;23.70;69.60
78184;DHT22;67442;44.570;18.610;2023-05-16T10:21:12;23.80;69.70
78184;DHT22;67442;44.570;18.610;2023-05-16T10:23:46;23.70;69.60
78184;DHT22;67442;44.570;18.610;2023-05-16T10:26:15;23.80;69.60
78184;DHT22;67442;44.570;18.610;2023-05-16T10:28:47;23.70;69.60
78184;DHT22;67442;44.570;18.610;2023-05-16T10:31:14;23.70;69.60
78184;DHT22;67442;44.570;18.610;2023-05-16T10:33:46;23.70;69.60
78184;DHT22;67442;44.570;18.610;2023-05-16T10:36:14;23.70;69.50
78184;DHT22;67442;44.570;18.610;2023-05-16T10:38:47;23.70;69.50
78184;DHT22;67442;44.570;18.610;2023-05-16T10:41:15;23.70;69.60
78184;DHT22;67442;44.570;18.610;2023-05-16T10:43:44;23.80;69.70
78184;DHT22;67442;44.570;18.610;2023-05-16T10:46:22;23.80;69.70
78184;DHT22;67442;44.570;18.610;2023-05-16T10:48:53;23.80;69.70
78184;DHT22;67442;44.570;18.610;2023-05-16T10:51:35;23.80;69.70
78184;DHT22;67442;44.570;18.610;2023-05-16T10:54:08;23.70;69.60
78184;DHT22;67442;44.570;18.610;2023-05-16T10:56:36;23.80;69.60
78184;DHT22;67442;44.570;18.610;2023-05-16T10:59:02;23.80;69.60
78184;DHT22;67442;44.570;18.610;2023-05-16T11:01:33;23.80;69.60
78184;DHT22;67442;44.570;18.610;2023-05-16T11:04:07;23.80;69.70
78184;DHT22;67442;44.570;18.610;2023-05-16T11:09:27;23.80;69.70
78184;DHT22;67442;44.570;18.610;2023-05-16T11:12:00;23.80;69.60
78184;DHT22;67442;44.570;18.610;2023-05-16T11:14:35;23.80;69.60
78184;DHT22;67442;44.570;18.610;2023-05-16T11:19:41;23.80;69.60
78184;DHT22;67442;44.570;18.610;2023-05-16T11:25:03;23.70;69.50
78184;DHT22;67442;44.570;18.610;2023-05-16T11:32:26;23.70;69.50
78184;DHT22;67442;44.570;18.610;2023-05-16T11:34:57;23.70;69.50
78184;DHT22;67442;44.570;18.610;2023-05-16T11:37:25;23.70;69.40
78184;DHT22;67442;44.570;18.610;2023-05-16T11:40:06;23.80;69.50
78184;DHT22;67442;44.570;18.610;2023-05-16T11:42:37;23.70;69.40
78184;DHT22;67442;44.570;18.610;2023-05-16T11:45:17;23.80;69.50
78184;DHT22;67442;44.570;18.610;2023-05-16T11:47:46;23.80;69.40
78184;DHT22;67442;44.570;18.610;2023-05-16T11:50:18;23.70;69.30
78184;DHT22;67442;44.570;18.610;2023-05-16T11:52:51;23.70;69.30
78184;DHT22;67442;44.570;18.610;2023-05-16T11:55:26;23.70;69.30
78184;DHT22;67442;44.570;18.610;2023-05-16T11:57:53;23.70;69.30
78184;DHT22;67442;44.570;18.610;2023-05-16T12:00:26;23.80;69.30
78184;DHT22;67442;44.570;18.610;2023-05-16T12:03:00;23.80;69.30
78184;DHT22;67442;44.570;18.610;2023-05-16T12:05:28;23.70;69.20
78184;DHT22;67442;44.570;18.610;2023-05-16T12:07:56;23.80;69.30
78184;DHT22;67442;44.570;18.610;2023-05-16T12:10:24;23.80;69.30
78184;DHT22;67442;44.570;18.610;2023-05-16T12:12:55;23.80;69.30
78184;DHT22;67442;44.570;18.610;2023-05-16T12:15:23;23.80;69.20
78184;DHT22;67442;44.570;18.610;2023-05-16T12:17:49;23.70;69.20
78184;DHT22;67442;44.570;18.610;2023-05-16T12:20:20;23.70;69.20
78184;DHT22;67442;44.570;18.610;2023-05-16T12:22:48;23.70;69.20
78184;DHT22;67442;44.570;18.610;2023-05-16T12:25:38;23.70;69.20
78184;DHT22;67442;44.570;18.610;2023-05-16T12:28:14;23.80;69.30
78184;DHT22;67442;44.570;18.610;2023-05-16T12:30:45;23.80;69.20
78184;DHT22;67442;44.570;18.610;2023-05-16T12:33:15;23.80;69.20
78184;DHT22;67442;44.570;18.610;2023-05-16T12:35:45;23.70;69.10
78184;DHT22;67442;44.570;18.610;2023-05-16T12:38:19;23.80;69.20
78184;DHT22;67442;44.570;18.610;2023-05-16T12:40:46;23.80;69.20
78184;DHT22;67442;44.570;18.610;2023-05-16T12:43:14;23.80;69.20
78184;DHT22;67442;44.570;18.610;2023-05-16T12:45:56;23.70;69.10
78184;DHT22;67442;44.570;18.610;2023-05-16T12:48:30;23.70;69.10
78184;DHT22;67442;44.570;18.610;2023-05-16T12:51:16;23.80;69.10
78184;DHT22;67442;44.570;18.610;2023-05-16T12:53:47;23.80;69.10
78184;DHT22;67442;44.570;18.610;2023-05-16T12:56:14;23.80;69.10
78184;DHT22;67442;44.570;18.610;2023-05-16T12:58:42;23.80;69.10
78184;DHT22;67442;44.570;18.610;2023-05-16T13:01:09;23.70;69.00
78184;DHT22;67442;44.570;18.610;2023-05-16T13:03:36;23.70;69.00
78184;DHT22;67442;44.570;18.610;2023-05-16T13:06:04;23.80;69.00
78184;DHT22;67442;44.570;18.610;2023-05-16T13:08:31;23.70;69.00
78184;DHT22;67442;44.570;18.610;2023-05-16T13:11:03;23.70;69.00
78184;DHT22;67442;44.570;18.610;2023-05-16T13:13:30;23.70;69.00
78184;DHT22;67442;44.570;18.610;2023-05-16T13:16:01;23.80;69.00
78184;DHT22;67442;44.570;18.610;2023-05-16T13:18:29;23.80;69.10
78184;DHT22;67442;44.570;18.610;2023-05-16T13:20:56;23.80;69.10
78184;DHT22;67442;44.570;18.610;2023-05-16T13:23:23;23.80;69.00
78184;DHT22;67442;44.570;18.610;2023-05-16T13:25:50;23.80;69.00
78184;DHT22;67442;44.570;18.610;2023-05-16T13:28:18;23.70;69.00
78184;DHT22;67442;44.570;18.610;2023-05-16T13:30:46;23.80;69.00
78184;DHT22;67442;44.570;18.610;2023-05-16T13:33:13;23.80;69.00
78184;DHT22;67442;44.570;18.610;2023-05-16T13:35:40;23.70;68.90
78184;DHT22;67442;44.570;18.610;2023-05-16T13:38:08;23.80;69.00
78184;DHT22;67442;44.570;18.610;2023-05-16T13:40:34;23.80;69.00
78184;DHT22;67442;44.570;18.610;2023-05-16T13:43:05;23.80;69.00
78184;DHT22;67442;44.570;18.610;2023-05-16T13:45:32;23.80;69.00
78184;DHT22;67442;44.570;18.610;2023-05-16T13:48:00;23.70;68.90
78184;DHT22;67442;44.570;18.610;2023-05-16T13:50:28;23.80;69.00
78184;DHT22;67442;44.570;18.610;2023-05-16T13:52:55;23.80;69.00
78184;DHT22;67442;44.570;18.610;2023-05-16T13:55:23;23.80;69.00
78184;DHT22;67442;44.570;18.610;2023-05-16T13:57:50;23.80;69.00
78184;DHT22;67442;44.570;18.610;2023-05-16T14:00:18;23.80;69.00
78184;DHT22;67442;44.570;18.610;2023-05-16T14:02:46;23.70;69.00
78184;DHT22;67442;44.570;18.610;2023-05-16T14:05:17;23.80;69.00
78184;DHT22;67442;44.570;18.610;2023-05-16T14:07:44;23.80;69.00
78184;DHT22;67442;44.570;18.610;2023-05-16T14:10:12;23.80;68.90
78184;DHT22;67442;44.570;18.610;2023-05-16T14:12:39;23.70;69.00
78184;DHT22;67442;44.570;18.610;2023-05-16T14:15:06;23.80;69.00
78184;DHT22;67442;44.570;18.610;2023-05-16T14:17:35;23.80;69.00
78184;DHT22;67442;44.570;18.610;2023-05-16T14:20:02;23.80;69.00
78184;DHT22;67442;44.570;18.610;2023-05-16T14:22:34;23.80;69.00
78184;DHT22;67442;44.570;18.610;2023-05-16T14:25:04;23.70;68.90
78184;DHT22;67442;44.570;18.610;2023-05-16T14:27:33;23.80;69.00
78184;DHT22;67442;44.570;18.610;2023-05-16T14:30:00;23.80;69.70
78184;DHT22;67442;44.570;18.610;2023-05-16T14:32:27;23.80;68.90
78184;DHT22;67442;44.570;18.610;2023-05-16T14:34:55;23.80;68.90
78184;DHT22;67442;44.570;18.610;2023-05-16T14:37:22;23.80;68.90
78184;DHT22;67442;44.570;18.610;2023-05-16T14:39:53;23.70;68.90
78184;DHT22;67442;44.570;18.610;2023-05-16T14:42:20;23.80;68.90
78184;DHT22;67442;44.570;18.610;2023-05-16T14:44:51;23.80;68.90
78184;DHT22;67442;44.570;18.610;2023-05-16T14:47:19;23.80;69.00
78184;DHT22;67442;44.570;18.610;2023-05-16T14:49:46;23.70;68.90
78184;DHT22;67442;44.570;18.610;2023-05-16T14:52:13;23.80;68.90
78184;DHT22;67442;44.570;18.610;2023-05-16T14:54:41;23.80;68.90
78184;DHT22;67442;44.570;18.610;2023-05-16T14:57:08;23.70;68.80
78184;DHT22;67442;44.570;18.610;2023-05-16T14:59:35;23.80;68.90
78184;DHT22;67442;44.570;18.610;2023-05-16T15:02:02;23.80;68.90
78184;DHT22;67442;44.570;18.610;2023-05-16T15:04:31;23.80;68.90
78184;DHT22;67442;44.570;18.610;2023-05-16T15:06:57;23.70;68.80
78184;DHT22;67442;44.570;18.610;2023-05-16T15:09:28;23.80;68.80
78184;DHT22;67442;44.570;18.610;2023-05-16T15:12:00;23.80;68.90
78184;DHT22;67442;44.570;18.610;2023-05-16T15:14:27;23.80;68.90
78184;DHT22;67442;44.570;18.610;2023-05-16T15:16:55;23.80;69.20
78184;DHT22;67442;44.570;18.610;2023-05-16T15:19:22;23.80;68.80
78184;DHT22;67442;44.570;18.610;2023-05-16T15:21:49;23.70;68.80
78184;DHT22;67442;44.570;18.610;2023-05-16T15:24:20;23.80;68.90
78184;DHT22;67442;44.570;18.610;2023-05-16T15:26:51;23.80;68.90
78184;DHT22;67442;44.570;18.610;2023-05-16T15:29:18;23.80;68.90
78184;DHT22;67442;44.570;18.610;2023-05-16T15:31:46;23.80;68.90
78184;DHT22;67442;44.570;18.610;2023-05-16T15:34:17;23.80;68.90
78184;DHT22;67442;44.570;18.610;2023-05-16T15:36:44;23.80;68.90
78184;DHT22;67442;44.570;18.610;2023-05-16T15:39:11;23.80;68.90
78184;DHT22;67442;44.570;18.610;2023-05-16T15:41:39;23.80;68.90
78184;DHT22;67442;44.570;18.610;2023-05-16T15:44:06;23.80;68.90
78184;DHT22;67442;44.570;18.610;2023-05-16T15:46:37;23.80;68.90
78184;DHT22;67442;44.570;18.610;2023-05-16T15:49:05;23.80;68.90
78184;DHT22;67442;44.570;18.610;2023-05-16T15:51:34;23.80;68.90
78184;DHT22;67442;44.570;18.610;2023-05-16T15:54:01;23.80;69.00
78184;DHT22;67442;44.570;18.610;2023-05-16T15:56:29;23.80;69.00